Time;durP1;ratioP1;P1;durP2;ratioP2;P2;SDS_P1;SDS_P2;PMS_P1;PMS_P2;Temp;Humidity;BMP_temperature;BMP_pressure;BME280_temperature;BME280_humidity;BME280_pressure;Samples;Min_cycle;Max_cycle;Signal;HPM_P1;HPM_P2
2022/09/27 00:00:44;;;;;;;3.38;2.40;;;;;;;10.35;100.00;98463.31;4995787;28;20293;-73
2022/09/27 00:03:12;;;;;;;2.80;2.22;;;;;;;10.35;100.00;98459.78;4994320;28;20258;-73
2022/09/27 00:05:39;;;;;;;2.67;2.00;;;;;;;10.37;100.00;98463.22;4995278;28;20199;-71
2022/09/27 00:08:06;;;;;;;7.95;2.20;;;;;;;10.37;100.00;98463.22;4994933;28;20278;-73
2022/09/27 00:10:33;;;;;;;2.97;2.45;;;;;;;10.31;100.00;98459.16;4994722;28;20311;-71
2022/09/27 00:13:00;;;;;;;3.10;2.05;;;;;;;10.34;100.00;98458.94;4999465;28;20769;-72
2022/09/27 00:15:27;;;;;;;2.78;2.30;;;;;;;10.34;100.00;98460.75;4995887;28;20207;-73
2022/09/27 00:17:55;;;;;;;3.17;2.00;;;;;;;10.31;100.00;98460.97;5000450;28;20238;-73
2022/09/27 00:20:21;;;;;;;3.65;2.05;;;;;;;10.38;100.00;98459.56;4997036;28;20231;-70
2022/09/27 00:22:49;;;;;;;3.65;2.33;;;;;;;10.41;100.00;98454.78;5016382;28;20268;-72
2022/09/27 00:25:17;;;;;;;3.92;2.30;;;;;;;10.35;100.00;98454.41;4995408;28;20239;-72
2022/09/27 00:27:44;;;;;;;4.20;1.88;;;;;;;10.36;100.00;98450.75;4992358;28;20236;-72
2022/09/27 00:30:12;;;;;;;1.70;1.33;;;;;;;10.41;100.00;98444.03;4993717;28;20195;-71
2022/09/27 00:32:39;;;;;;;3.33;2.35;;;;;;;10.30;100.00;98446.66;4994570;28;20226;-72
2022/09/27 00:35:08;;;;;;;4.10;2.20;;;;;;;10.27;100.00;98454.09;4992806;28;20910;-73
2022/09/27 00:37:35;;;;;;;2.40;1.80;;;;;;;10.31;100.00;98444.84;4994993;28;20235;-72
2022/09/27 00:40:02;;;;;;;3.60;2.40;;;;;;;10.34;100.00;98447.31;4996132;28;20289;-71
2022/09/27 00:42:29;;;;;;;3.45;2.33;;;;;;;10.35;100.00;98449.88;4994496;28;20218;-71
2022/09/27 00:45:16;;;;;;;2.92;2.00;;;;;;;10.28;100.00;98447.72;4992709;28;20230;-73
2022/09/27 00:47:49;;;;;;;3.35;2.00;;;;;;;10.34;100.00;98450.00;4993403;28;20308;-72
2022/09/27 00:50:32;;;;;;;3.42;2.25;;;;;;;10.32;100.00;98438.50;4996441;28;20661;-72
2022/09/27 00:53:12;;;;;;;3.53;2.10;;;;;;;10.39;100.00;98439.75;4997770;28;20669;-72
2022/09/27 00:55:43;;;;;;;5.38;2.38;;;;;;;10.38;100.00;98428.13;4993867;28;20204;-72
2022/09/27 00:58:12;;;;;;;3.10;2.15;;;;;;;10.34;100.00;98431.16;4995623;28;20191;-73
2022/09/27 01:00:44;;;;;;;2.75;2.30;;;;;;;10.39;100.00;98429.84;4997773;28;20229;-72
2022/09/27 01:03:15;;;;;;;3.58;2.00;;;;;;;10.40;100.00;98428.00;4999182;28;20227;-72
2022/09/27 01:05:43;;;;;;;2.95;2.30;;;;;;;10.36;100.00;98423.84;5004524;28;20227;-72
2022/09/27 01:08:10;;;;;;;3.40;2.38;;;;;;;10.31;100.00;98426.00;5010155;28;20250;-72
2022/09/27 01:10:46;;;;;;;2.30;2.00;;;;;;;10.28;100.00;98416.31;5002245;28;20199;-72
2022/09/27 01:13:19;;;;;;;3.10;2.35;;;;;;;10.27;100.00;98425.38;4996589;28;20222;-72
2022/09/27 01:15:53;;;;;;;3.20;2.08;;;;;;;10.32;100.00;98416.97;4998074;28;20278;-73
2022/09/27 01:18:30;;;;;;;2.08;1.60;;;;;;;10.31;100.00;98415.25;4994452;28;20230;-73
2022/09/27 01:21:32;;;;;;;2.38;1.67;;;;;;;10.26;100.00;98418.25;4998072;28;20573;-73
2022/09/27 01:24:23;;;;;;;6.82;2.30;;;;;;;10.36;100.00;98415.78;4994318;28;20609;-72
2022/09/27 01:27:28;;;;;;;2.42;1.95;;;;;;;10.31;100.00;98405.34;4996801;28;20254;-73
2022/09/27 01:30:13;;;;;;;3.35;2.10;;;;;;;10.32;100.00;98415.13;4931548;29;20303;-71
2022/09/27 01:32:50;;;;;;;3.67;2.00;;;;;;;10.30;100.00;98417.09;4933585;29;20274;-72
2022/09/27 01:35:31;;;;;;;2.50;2.22;;;;;;;10.32;100.00;98417.81;4935678;29;20705;-72
2022/09/27 01:38:06;;;;;;;2.95;2.30;;;;;;;10.32;100.00;98411.59;4937542;29;20280;-72
2022/09/27 01:40:40;;;;;;;2.40;2.00;;;;;;;10.35;100.00;98414.03;4938914;29;20234;-73
2022/09/27 01:43:13;;;;;;;2.55;1.90;;;;;;;10.33;100.00;98415.97;4935590;29;20221;-72
2022/09/27 01:45:46;;;;;;;3.15;1.60;;;;;;;10.35;100.00;98411.34;4930671;29;20242;-73
2022/09/27 01:48:18;;;;;;;2.83;2.00;;;;;;;10.30;100.00;98413.53;4936752;29;20257;-73
2022/09/27 01:50:49;;;;;;;2.30;1.85;;;;;;;10.34;100.00;98406.97;4936947;29;20233;-73
2022/09/27 01:53:20;;;;;;;2.50;2.00;;;;;;;10.30;100.00;98410.84;4941384;29;20271;-72
2022/09/27 01:55:51;;;;;;;3.10;2.28;;;;;;;10.31;100.00;98408.06;4947500;29;20641;-71
2022/09/27 01:58:22;;;;;;;5.03;2.15;;;;;;;10.37;100.00;98401.31;4934503;29;20288;-74
2022/09/27 02:00:53;;;;;;;2.70;1.70;;;;;;;10.30;100.00;98405.47;4934528;29;20854;-73
2022/09/27 02:03:24;;;;;;;2.58;1.98;;;;;;;10.33;100.00;98402.53;4935139;29;20781;-72
2022/09/27 02:05:54;;;;;;;2.30;1.73;;;;;;;10.31;100.00;98405.34;4936763;28;20232;-74
2022/09/27 02:08:30;;;;;;;2.42;1.98;;;;;;;10.30;100.00;98408.16;4996562;28;20222;-72
2022/09/27 02:11:00;;;;;;;2.97;2.00;;;;;;;10.35;100.00;98403.28;4998383;28;20268;-72
2022/09/27 02:13:36;;;;;;;2.03;1.80;;;;;;;10.25;100.00;98399.56;4996764;28;20258;-72
2022/09/27 02:16:14;;;;;;;3.78;2.10;;;;;;;10.32;100.00;98401.69;4997605;28;20277;-72
2022/09/27 02:18:51;;;;;;;3.38;2.20;;;;;;;10.28;100.00;98399.31;4997546;28;20219;-74
2022/09/27 02:21:21;;;;;;;2.90;1.90;;;;;;;10.26;100.00;98401.25;4996527;28;20620;-72
2022/09/27 02:23:52;;;;;;;6.07;2.00;;;;;;;10.29;100.00;98398.34;4998536;28;20421;-72
2022/09/27 02:26:22;;;;;;;4.20;2.38;;;;;;;10.23;100.00;98403.19;4995785;28;20219;-73
2022/09/27 02:28:56;;;;;;;4.22;2.30;;;;;;;10.30;100.00;98413.53;4997068;28;20283;-72
2022/09/27 02:31:24;;;;;;;3.88;2.42;;;;;;;10.27;100.00;98406.53;4997697;28;20226;-72
2022/09/27 02:33:55;;;;;;;3.28;2.33;;;;;;;10.30;100.00;98409.00;4995971;28;20262;-74
2022/09/27 02:36:22;;;;;;;5.32;2.45;;;;;;;10.33;100.00;98405.22;4995734;28;20221;-73
2022/09/27 02:38:50;;;;;;;5.25;2.50;;;;;;;10.37;100.00;98404.88;4996073;28;20623;-73
2022/09/27 02:41:19;;;;;;;3.60;2.22;;;;;;;10.36;100.00;98405.84;5001583;28;20202;-72
2022/09/27 02:43:49;;;;;;;7.28;2.45;;;;;;;10.32;100.00;98412.44;4996711;28;20282;-71
2022/09/27 02:46:49;;;;;;;5.97;2.60;;;;;;;10.32;100.00;98408.91;4995018;28;20290;-72
2022/09/27 02:49:30;;;;;;;7.57;2.60;;;;;;;10.32;100.00;98407.06;4997270;28;20621;-72
2022/09/27 02:52:05;;;;;;;3.78;2.53;;;;;;;10.34;100.00;98415.88;4997461;28;20231;-71
2022/09/27 02:54:40;;;;;;;8.13;2.70;;;;;;;10.33;100.00;98419.53;4995326;28;20205;-72
2022/09/27 02:57:21;;;;;;;6.78;2.58;;;;;;;10.36;100.00;98427.38;4998328;28;20195;-73
2022/09/27 02:59:55;;;;;;;6.82;2.70;;;;;;;10.32;100.00;98428.59;4995829;28;21067;-72
2022/09/27 03:02:32;;;;;;;5.45;2.47;;;;;;;10.34;100.00;98436.56;4994659;28;20386;-73
2022/09/27 03:05:03;;;;;;;5.45;2.53;;;;;;;10.36;100.00;98430.06;4997119;28;20234;-73
2022/09/27 03:07:30;;;;;;;4.65;3.00;;;;;;;10.39;100.00;98445.13;4999069;28;20261;-73
2022/09/27 03:09:57;;;;;;;4.40;2.63;;;;;;;10.41;100.00;98437.78;5000766;28;20204;-72
2022/09/27 03:12:25;;;;;;;6.47;3.50;;;;;;;10.33;100.00;98440.19;4995571;28;20334;-72
2022/09/27 03:14:55;;;;;;;8.25;3.10;;;;;;;10.38;100.00;98438.91;4997466;28;20681;-72
2022/09/27 03:17:23;;;;;;;5.55;3.45;;;;;;;10.42;100.00;98461.91;4996687;28;20231;-72
2022/09/27 03:19:50;;;;;;;6.68;2.65;;;;;;;10.40;100.00;98454.91;4996421;28;20231;-72
2022/09/27 03:22:17;;;;;;;11.77;3.10;;;;;;;10.42;100.00;98464.59;4994404;28;20237;-73
2022/09/27 03:24:43;;;;;;;5.40;3.05;;;;;;;10.37;100.00;98466.75;4995793;28;20198;-73
2022/09/27 03:27:10;;;;;;;3.70;2.50;;;;;;;10.38;100.00;98476.56;4996245;28;20266;-72
2022/09/27 03:29:37;;;;;;;4.05;3.00;;;;;;;10.36;100.00;98472.28;4995531;28;20212;-73
2022/09/27 03:32:04;;;;;;;3.85;2.85;;;;;;;10.30;100.00;98473.56;4995802;28;20635;-72
2022/09/27 03:34:32;;;;;;;5.13;2.40;;;;;;;10.34;100.00;98485.84;4995029;28;20527;-72
2022/09/27 03:36:58;;;;;;;4.65;2.30;;;;;;;10.27;100.00;98483.69;4995151;28;20227;-71
2022/09/27 03:39:26;;;;;;;4.47;3.35;;;;;;;10.30;100.00;98494.25;4996605;28;20206;-72
2022/09/27 03:41:53;;;;;;;4.00;2.13;;;;;;;10.33;100.00;98502.09;5002025;28;20234;-71
2022/09/27 03:44:19;;;;;;;3.15;1.98;;;;;;;10.35;100.00;98505.50;5000255;28;20203;-72
2022/09/27 03:46:46;;;;;;;3.35;1.90;;;;;;;10.30;100.00;98511.25;4994868;28;20206;-72
2022/09/27 03:49:12;;;;;;;3.05;2.05;;;;;;;10.36;100.00;98507.25;4985618;28;20234;-72
2022/09/27 03:51:41;;;;;;;2.47;1.98;;;;;;;10.39;100.00;98518.63;4989381;28;20273;-73
2022/09/27 03:54:08;;;;;;;4.90;2.10;;;;;;;10.32;100.00;98516.53;4995494;28;20218;-72
2022/09/27 03:56:34;;;;;;;3.60;1.67;;;;;;;10.29;100.00;98522.09;4992746;28;20295;-74
2022/09/27 03:59:02;;;;;;;2.17;1.73;;;;;;;10.22;100.00;98533.31;4996198;28;20282;-74
2022/09/27 04:01:29;;;;;;;3.75;1.77;;;;;;;10.20;100.00;98537.94;4996099;28;20226;-73
2022/09/27 04:03:55;;;;;;;3.25;1.70;;;;;;;10.21;100.00;98536.94;4996251;28;21071;-73
2022/09/27 04:06:22;;;;;;;2.45;1.60;;;;;;;10.13;100.00;98542.06;4989965;28;20271;-72
2022/09/27 04:08:50;;;;;;;1.92;1.60;;;;;;;10.06;100.00;98545.28;4994688;28;20230;-74
2022/09/27 04:11:17;;;;;;;2.45;1.42;;;;;;;10.02;100.00;98548.22;4993768;28;20236;-75
2022/09/27 04:13:44;;;;;;;2.03;1.38;;;;;;;9.97;100.00;98550.38;4995113;28;20298;-72
2022/09/27 04:16:11;;;;;;;2.70;1.13;;;;;;;10.02;100.00;98558.13;4994685;28;20577;-74
2022/09/27 04:18:37;;;;;;;5.00;1.63;;;;;;;9.96;100.00;98561.25;4994037;28;20286;-71
2022/09/27 04:21:04;;;;;;;2.13;0.90;;;;;;;9.95;100.00;98555.00;4998080;28;20255;-73
2022/09/27 04:23:31;;;;;;;2.95;1.65;;;;;;;9.82;100.00;98555.03;4997151;28;20221;-71
2022/09/27 04:25:59;;;;;;;2.45;1.20;;;;;;;9.84;100.00;98560.31;4992258;28;20242;-78
2022/09/27 04:28:26;;;;;;;2.50;1.50;;;;;;;9.78;100.00;98553.50;4999414;28;20253;-73
2022/09/27 04:30:53;;;;;;;2.20;1.10;;;;;;;9.79;100.00;98557.94;4996754;28;20202;-73
2022/09/27 04:33:20;;;;;;;2.75;1.23;;;;;;;9.79;100.00;98566.00;4990182;28;20276;-72
2022/09/27 04:38:30;;;;;;;2.15;1.40;;;;;;;9.63;100.00;98567.19;5001698;28;20216;-72
2022/09/27 04:41:00;;;;;;;3.97;1.30;;;;;;;9.69;100.00;98575.69;5002135;28;20256;-72
2022/09/27 04:43:27;;;;;;;2.08;1.40;;;;;;;9.68;100.00;98576.66;4999915;28;20230;-72
2022/09/27 04:45:54;;;;;;;3.10;1.60;;;;;;;9.70;100.00;98582.78;5001512;28;20237;-71
2022/09/27 04:48:20;;;;;;;3.00;1.90;;;;;;;9.76;100.00;98581.47;5011505;28;20248;-71
2022/09/27 04:50:47;;;;;;;5.15;1.70;;;;;;;9.75;100.00;98583.31;5020105;28;20199;-73
2022/09/27 04:53:14;;;;;;;2.92;1.27;;;;;;;9.78;100.00;98588.47;5026930;23;20229;-72
2022/09/27 04:55:45;;;;;;;4.72;1.65;;;;;;;9.76;100.00;98582.34;4998584;28;20290;-73
2022/09/27 04:58:13;;;;;;;3.10;1.70;;;;;;;9.76;100.00;98587.72;4998097;28;20296;-73
2022/09/27 05:00:41;;;;;;;2.63;1.17;;;;;;;9.76;100.00;98582.34;4998504;28;20634;-72
2022/09/27 05:03:08;;;;;;;3.35;1.38;;;;;;;9.77;100.00;98581.38;4999519;28;20224;-73
2022/09/27 05:05:35;;;;;;;1.55;1.00;;;;;;;9.77;100.00;98592.13;5010800;28;20559;-73
2022/09/27 05:08:02;;;;;;;2.10;0.90;;;;;;;9.67;100.00;98580.28;5011889;28;20211;-72
2022/09/27 05:10:28;;;;;;;3.20;1.33;;;;;;;9.69;100.00;98589.13;4997797;28;20288;-72
2022/09/27 05:12:55;;;;;;;3.95;1.27;;;;;;;9.66;100.00;98597.41;4998484;28;20301;-71
2022/09/27 05:15:23;;;;;;;2.10;1.30;;;;;;;9.64;100.00;98601.19;4985426;28;20309;-71
2022/09/27 05:17:51;;;;;;;1.80;1.10;;;;;;;9.64;100.00;98610.09;4978048;28;20337;-72
2022/09/27 05:20:18;;;;;;;3.10;1.67;;;;;;;9.66;100.00;98610.84;4998057;28;20296;-72
2022/09/27 05:22:45;;;;;;;2.83;1.33;;;;;;;9.66;100.00;98605.47;5009466;28;20232;-73
2022/09/27 05:25:11;;;;;;;2.38;1.33;;;;;;;9.62;100.00;98611.16;5017176;28;20300;-72
2022/09/27 05:27:38;;;;;;;3.38;1.75;;;;;;;9.65;100.00;98619.84;5017078;28;20311;-72
2022/09/27 05:30:06;;;;;;;2.47;1.02;;;;;;;9.64;100.00;98620.00;5022779;28;20624;-71
2022/09/27 05:32:34;;;;;;;1.98;1.10;;;;;;;9.60;100.00;98617.50;5016429;28;20229;-72
2022/09/27 05:35:01;;;;;;;2.35;1.20;;;;;;;9.66;100.00;98621.59;5006436;28;20288;-72
2022/09/27 05:37:28;;;;;;;2.20;1.35;;;;;;;9.67;100.00;98617.94;5006191;28;20640;-72
2022/09/27 05:39:55;;;;;;;3.13;1.65;;;;;;;9.63;100.00;98619.09;4998843;28;20263;-71
2022/09/27 05:42:22;;;;;;;3.53;1.63;;;;;;;9.66;100.00;98618.06;4998771;28;20253;-72
2022/09/27 05:44:48;;;;;;;3.35;1.25;;;;;;;9.69;100.00;98628.59;4998398;28;20210;-72
2022/09/27 05:47:15;;;;;;;2.50;1.05;;;;;;;9.74;100.00;98631.78;5000073;28;20245;-71
2022/09/27 05:49:43;;;;;;;1.50;0.80;;;;;;;9.76;100.00;98633.41;4999650;28;20229;-72
2022/09/27 05:52:10;;;;;;;2.25;1.10;;;;;;;9.79;100.00;98633.22;5008318;28;20292;-72
2022/09/27 05:54:36;;;;;;;2.53;1.05;;;;;;;9.85;100.00;98639.13;5009044;28;20285;-73
2022/09/27 05:57:04;;;;;;;1.65;1.30;;;;;;;9.87;100.00;98646.09;5015286;28;20198;-73
2022/09/27 05:59:32;;;;;;;2.60;1.20;;;;;;;9.86;100.00;98643.50;5006200;28;20210;-73
2022/09/27 06:01:58;;;;;;;3.30;1.30;;;;;;;9.84;100.00;98649.00;5010695;28;20256;-72
2022/09/27 06:04:25;;;;;;;1.90;1.10;;;;;;;9.90;100.00;98647.72;5016042;28;20260;-72
2022/09/27 06:06:53;;;;;;;3.78;1.20;;;;;;;9.91;100.00;98653.00;5016020;28;20639;-73
2022/09/27 06:09:19;;;;;;;1.98;1.17;;;;;;;9.98;100.00;98651.59;5016776;28;20288;-72
2022/09/27 06:11:46;;;;;;;2.20;1.10;;;;;;;10.00;100.00;98655.03;5016789;28;20253;-73
2022/09/27 06:14:13;;;;;;;1.90;1.50;;;;;;;9.98;100.00;98656.09;5015849;28;20245;-71
2022/09/27 06:16:40;;;;;;;2.70;1.20;;;;;;;10.06;100.00;98664.47;5011600;28;20202;-72
2022/09/27 06:19:07;;;;;;;2.63;1.50;;;;;;;10.10;100.00;98665.13;5007391;28;20198;-71
2022/09/27 06:21:34;;;;;;;2.40;1.60;;;;;;;10.13;100.00;98665.78;5010755;28;20263;-72
2022/09/27 06:24:03;;;;;;;2.45;1.13;;;;;;;10.16;100.00;98667.41;4996192;28;20210;-73
2022/09/27 06:26:29;;;;;;;2.97;1.40;;;;;;;10.23;100.00;98674.06;5001039;28;20218;-73
2022/09/27 06:28:56;;;;;;;2.13;1.50;;;;;;;10.27;100.00;98674.72;5004657;28;20222;-72
2022/09/27 06:31:23;;;;;;;4.15;1.90;;;;;;;10.34;100.00;98674.19;5005640;28;20237;-72
2022/09/27 06:33:49;;;;;;;3.20;1.60;;;;;;;10.36;100.00;98682.16;5014240;28;20231;-72
2022/09/27 06:36:17;;;;;;;2.95;1.45;;;;;;;10.30;100.00;98686.13;5014694;28;20296;-72
2022/09/27 06:38:47;;;;;;;2.75;1.30;;;;;;;10.39;100.00;98687.28;5019083;28;20616;-72
2022/09/27 06:41:15;;;;;;;2.60;1.48;;;;;;;10.44;100.00;98691.34;5018733;28;20212;-73
2022/09/27 06:43:42;;;;;;;2.17;1.63;;;;;;;10.36;100.00;98698.28;5002848;28;20683;-74
2022/09/27 06:46:09;;;;;;;1.85;1.45;;;;;;;10.47;100.00;98693.00;5004057;28;20201;-72
2022/09/27 06:48:38;;;;;;;2.00;1.20;;;;;;;10.50;100.00;98694.59;5014848;28;20230;-72
2022/09/27 06:51:05;;;;;;;6.10;1.40;;;;;;;10.53;100.00;98710.53;5014771;28;20209;-73
2022/09/27 06:53:31;;;;;;;3.35;1.50;;;;;;;10.55;100.00;98701.38;4967113;28;1095293;-72
2022/09/27 06:55:59;;;;;;;1.85;1.20;;;;;;;10.52;100.00;98717.75;5000206;28;20756;-72
2022/09/27 07:01:12;;;;;;;2.03;1.30;;;;;;;10.54;100.00;98713.13;4995835;28;20191;-72
2022/09/27 07:03:40;;;;;;;1.90;1.30;;;;;;;10.64;100.00;98718.69;4998458;28;20286;-72
2022/09/27 07:06:15;;;;;;;2.75;1.40;;;;;;;10.61;100.00;98725.16;4996416;28;20551;-73
2022/09/27 07:08:42;;;;;;;1.88;1.10;;;;;;;10.68;100.00;98713.94;4994929;28;20297;-73
2022/09/27 07:11:09;;;;;;;1.90;1.10;;;;;;;10.70;100.00;98720.94;5002161;28;20237;-73
2022/09/27 07:13:41;;;;;;;3.72;1.55;;;;;;;10.73;100.00;98719.84;4999330;28;20226;-74
2022/09/27 07:16:10;;;;;;;3.15;1.13;;;;;;;10.72;100.00;98727.06;4998728;28;20591;-73
2022/09/27 07:18:37;;;;;;;2.42;1.30;;;;;;;10.75;100.00;98734.06;5014512;28;20198;-73
2022/09/27 07:21:03;;;;;;;1.33;0.93;;;;;;;10.78;100.00;98736.53;5015250;28;20218;-73
2022/09/27 07:23:30;;;;;;;5.53;0.98;;;;;;;10.83;100.00;98742.44;5014776;28;20720;-73
2022/09/27 07:26:01;;;;;;;3.75;1.02;;;;;;;10.74;100.00;98743.97;5004494;28;20285;-72
2022/09/27 07:28:28;;;;;;;1.42;1.00;;;;;;;10.78;100.00;98752.69;5006228;28;20268;-72
2022/09/27 07:30:56;;;;;;;1.65;0.90;;;;;;;10.82;100.00;98746.09;5015325;28;20284;-73
2022/09/27 07:33:23;;;;;;;8.05;1.38;;;;;;;10.84;100.00;98736.09;5014349;28;20281;-73
2022/09/27 07:35:49;;;;;;;2.30;1.00;;;;;;;10.97;100.00;98746.84;5015058;28;20230;-73
2022/09/27 07:38:16;;;;;;;3.00;2.00;;;;;;;10.92;100.00;98749.88;5016595;28;20290;-74
2022/09/27 07:40:43;;;;;;;2.72;1.05;;;;;;;10.93;100.00;98746.19;5026203;28;20230;-72
2022/09/27 07:43:11;;;;;;;2.35;1.15;;;;;;;11.04;100.00;98750.78;5008987;28;20316;-72
2022/09/27 07:45:38;;;;;;;2.10;0.90;;;;;;;11.12;100.00;98751.06;5001068;28;20203;-71
2022/09/27 07:48:06;;;;;;;1.30;0.90;;;;;;;11.25;100.00;98761.81;4999905;28;20210;-72
2022/09/27 07:50:33;;;;;;;2.20;0.90;;;;;;;11.27;100.00;98757.16;4997004;28;20311;-73
2022/09/27 07:53:00;;;;;;;1.45;0.82;;;;;;;11.36;100.00;98755.63;4995836;28;20269;-73
2022/09/27 07:55:26;;;;;;;1.67;0.98;;;;;;;11.40;100.00;98759.81;4995113;28;20215;-72
2022/09/27 07:58:02;;;;;;;3.50;0.80;;;;;;;11.56;100.00;98765.78;4999306;28;20237;-73
2022/09/27 08:00:29;;;;;;;1.58;0.93;;;;;;;11.68;100.00;98759.44;5006251;28;20237;-73
2022/09/27 08:02:55;;;;;;;1.70;1.10;;;;;;;11.56;100.00;98773.00;5014622;28;20566;-73
2022/09/27 08:05:23;;;;;;;3.25;1.17;;;;;;;11.87;100.00;98752.63;5015005;28;20314;-73
2022/09/27 08:07:55;;;;;;;5.38;1.02;;;;;;;12.76;100.00;98758.31;5014649;28;20245;-74
2022/09/27 08:10:24;;;;;;;3.78;1.10;;;;;;;13.55;100.00;98753.66;5014000;28;20222;-73
2022/09/27 08:12:51;;;;;;;2.42;1.00;;;;;;;13.84;100.00;98745.78;5014606;28;20269;-73
2022/09/27 08:15:18;;;;;;;1.95;0.80;;;;;;;14.08;100.00;98760.88;5008267;28;20217;-73
2022/09/27 08:17:44;;;;;;;2.13;0.90;;;;;;;13.51;100.00;98758.44;5010611;28;20205;-73
2022/09/27 08:20:12;;;;;;;1.85;0.90;;;;;;;13.20;100.00;98767.34;5015504;28;20240;-72
2022/09/27 08:22:42;;;;;;;1.27;0.70;;;;;;;12.87;100.00;98761.00;5015662;28;20264;-74
2022/09/27 08:25:09;;;;;;;2.15;0.80;;;;;;;12.61;100.00;98772.06;5012562;28;20626;-73
2022/09/27 08:27:36;;;;;;;4.25;1.00;;;;;;;12.41;100.00;98765.53;4995684;28;20253;-73
2022/09/27 08:30:03;;;;;;;3.25;0.98;;;;;;;12.76;100.00;98771.81;4995488;28;20278;-75
2022/09/27 08:32:31;;;;;;;2.05;0.90;;;;;;;13.25;100.00;98778.63;5002199;28;20228;-73
2022/09/27 08:34:58;;;;;;;3.35;0.80;;;;;;;13.97;100.00;98772.63;5010863;28;20440;-73
2022/09/27 08:37:25;;;;;;;1.70;0.80;;;;;;;14.43;99.60;98778.66;5015403;28;20683;-76
2022/09/27 08:39:53;;;;;;;4.32;0.88;;;;;;;15.31;89.76;98774.44;5010449;28;20284;-73
2022/09/27 08:42:28;;;;;;;1.77;0.60;;;;;;;16.43;76.45;98781.22;5007364;28;20254;-74
2022/09/27 08:45:01;;;;;;;1.58;0.90;;;;;;;15.51;79.50;98783.50;5015279;28;20190;-75
2022/09/27 08:47:33;;;;;;;2.60;0.85;;;;;;;15.36;81.83;98781.19;5014707;28;20627;-74
2022/09/27 08:50:04;;;;;;;1.40;0.80;;;;;;;14.90;85.29;98795.31;5014621;28;20630;-73
2022/09/27 08:52:35;;;;;;;1.70;0.70;;;;;;;14.15;92.13;98794.56;5014299;28;20321;-73
2022/09/27 08:55:14;;;;;;;1.85;1.10;;;;;;;14.02;95.48;98793.88;5009655;28;20235;-74
2022/09/27 08:57:41;;;;;;;2.00;0.77;;;;;;;14.02;96.73;98792.06;5002540;28;20229;-74
2022/09/27 09:00:12;;;;;;;1.80;0.90;;;;;;;13.70;96.36;98803.75;4994465;28;20238;-75
2022/09/27 09:02:41;;;;;;;1.65;0.90;;;;;;;14.73;89.36;98797.66;4994028;28;20646;-75
2022/09/27 09:05:12;;;;;;;1.42;0.80;;;;;;;14.79;88.06;98802.53;4993844;28;20644;-73
2022/09/27 09:07:53;;;;;;;1.67;0.63;;;;;;;15.41;81.01;98806.03;4993649;28;20196;-75
2022/09/27 09:13:34;;;;;;;1.80;0.80;;;;;;;17.16;68.32;98796.00;5011126;28;20241;-73
2022/09/27 09:16:10;;;;;;;2.72;1.17;;;;;;;17.43;70.11;98800.59;5016742;28;20241;-75
2022/09/27 09:18:51;;;;;;;3.70;0.73;;;;;;;16.33;68.40;98802.13;5016848;28;20287;-74
2022/09/27 09:21:27;;;;;;;1.70;0.70;;;;;;;14.97;78.66;98794.63;5016583;28;20617;-74
2022/09/27 09:24:20;;;;;;;2.55;0.73;;;;;;;14.46;84.25;98800.03;5016716;28;20249;-73
2022/09/27 09:26:57;;;;;;;1.52;0.93;;;;;;;13.93;89.14;98791.00;4999133;28;20306;-74
2022/09/27 09:29:36;;;;;;;2.55;1.33;;;;;;;13.84;91.71;98797.19;5004816;28;20309;-74
2022/09/27 09:32:12;;;;;;;2.63;1.02;;;;;;;13.81;92.81;98796.56;5008496;28;20300;-74
2022/09/27 09:34:43;;;;;;;2.70;1.23;;;;;;;13.84;92.19;98794.47;4996285;28;20244;-74
2022/09/27 09:37:16;;;;;;;2.20;0.90;;;;;;;13.75;90.28;98798.81;5004502;28;20244;-73
2022/09/27 09:39:50;;;;;;;1.60;0.90;;;;;;;13.74;92.09;98788.09;5009052;28;20231;-75
2022/09/27 09:42:25;;;;;;;2.03;1.10;;;;;;;14.03;90.30;98784.78;5017534;28;20324;-73
2022/09/27 09:44:59;;;;;;;2.45;1.20;;;;;;;14.14;90.83;98780.16;5018126;28;20225;-73
2022/09/27 09:47:34;;;;;;;4.55;0.90;;;;;;;14.84;80.43;98782.31;5017789;28;20251;-73
2022/09/27 09:50:05;;;;;;;1.98;0.93;;;;;;;14.52;84.13;98776.00;5017269;28;20245;-74
2022/09/27 09:52:40;;;;;;;1.50;1.10;;;;;;;14.21;86.06;98766.13;5016234;28;20237;-73
2022/09/27 09:55:17;;;;;;;2.15;0.80;;;;;;;13.82;91.10;98768.53;4997078;28;20235;-73
2022/09/27 09:57:55;;;;;;;4.13;0.93;;;;;;;13.60;93.59;98775.75;4997146;28;20187;-73
2022/09/27 10:00:21;;;;;;;2.95;1.10;;;;;;;13.75;93.01;98774.47;4997294;28;20233;-74
2022/09/27 10:02:49;;;;;;;1.30;0.80;;;;;;;13.63;90.62;98780.03;4997027;28;20312;-74
2022/09/27 10:05:19;;;;;;;1.40;1.10;;;;;;;13.65;89.63;98765.38;4997208;28;20242;-74
2022/09/27 10:07:49;;;;;;;1.73;1.05;;;;;;;13.43;89.77;98769.06;4996531;28;20210;-73
2022/09/27 10:10:19;;;;;;;1.65;0.80;;;;;;;13.54;89.78;98779.84;4995848;28;20226;-74
2022/09/27 10:12:48;;;;;;;1.75;0.80;;;;;;;14.22;85.59;98760.53;4997558;28;20308;-75
2022/09/27 10:15:17;;;;;;;1.73;0.85;;;;;;;15.54;72.58;98758.81;5000432;28;20211;-75
2022/09/27 10:17:49;;;;;;;2.78;0.82;;;;;;;16.32;67.69;98759.63;4997161;28;20290;-74
2022/09/27 10:20:24;;;;;;;1.77;0.80;;;;;;;15.96;68.57;98758.56;4996818;28;20186;-74
2022/09/27 10:22:55;;;;;;;2.25;0.77;;;;;;;15.36;72.07;98761.34;4996505;28;20262;-73
2022/09/27 10:25:22;;;;;;;1.70;0.88;;;;;;;14.97;72.59;98763.97;4994894;28;20210;-75
2022/09/27 10:27:53;;;;;;;5.68;0.95;;;;;;;15.13;71.79;98764.28;4994639;28;20238;-74
2022/09/27 10:30:26;;;;;;;1.50;0.70;;;;;;;15.13;70.57;98755.31;4996059;28;20262;-73
2022/09/27 10:32:56;;;;;;;1.95;0.60;;;;;;;15.46;70.17;98755.94;4996210;28;20259;-74
2022/09/27 10:35:35;;;;;;;1.13;0.60;;;;;;;15.42;71.78;98755.34;4996042;28;20211;-73
2022/09/27 10:38:21;;;;;;;1.50;0.70;;;;;;;16.26;68.44;98746.66;4996106;28;20559;-73
2022/09/27 10:40:49;;;;;;;1.42;0.70;;;;;;;15.61;68.55;98747.25;4994876;28;20294;-74
2022/09/27 10:43:31;;;;;;;1.80;0.80;;;;;;;15.45;70.10;98743.38;4997500;28;20226;-79
2022/09/27 10:46:04;;;;;;;1.95;0.70;;;;;;;14.97;74.70;98745.00;5003207;28;20214;-75
2022/09/27 10:48:31;;;;;;;1.30;0.60;;;;;;;14.77;76.50;98747.63;4995395;28;20287;-74
2022/09/27 10:51:00;;;;;;;2.22;0.70;;;;;;;14.10;82.74;98746.22;4996561;28;20237;-74
2022/09/27 10:53:29;;;;;;;2.08;0.70;;;;;;;14.02;87.22;98750.56;5020494;23;20262;-73
2022/09/27 10:55:56;;;;;;;1.20;0.70;;;;;;;14.00;89.80;98745.31;5023479;28;20718;-73
2022/09/27 10:58:29;;;;;;;1.67;0.70;;;;;;;13.86;99.83;98749.22;5018150;28;20233;-73
2022/09/27 11:00:59;;;;;;;3.47;1.10;;;;;;;13.93;100.00;98750.41;5020341;28;20221;-73
2022/09/27 11:03:28;;;;;;;2.10;0.88;;;;;;;14.32;97.31;98742.53;5009525;28;20707;-73
2022/09/27 11:05:55;;;;;;;3.15;1.40;;;;;;;15.43;87.64;98738.94;5014497;28;20240;-75
2022/09/27 11:08:28;;;;;;;1.20;0.70;;;;;;;15.27;73.55;98732.38;5014053;28;20645;-74
2022/09/27 11:11:05;;;;;;;2.03;0.90;;;;;;;14.60;81.80;98748.25;5014147;28;20297;-73
2022/09/27 11:13:34;;;;;;;3.40;0.82;;;;;;;14.04;81.28;98737.78;5016181;28;20222;-73
2022/09/27 11:16:28;;;;;;;14.63;9.95;;;;;;;13.82;81.46;98739.63;5013912;28;20213;-73
2022/09/27 11:19:07;;;;;;;1.83;1.15;;;;;;;14.39;78.14;98735.56;5018364;28;20201;-74
2022/09/27 11:21:45;;;;;;;1.80;0.77;;;;;;;16.41;64.91;98730.75;5016554;28;20307;-74
2022/09/27 11:24:32;;;;;;;1.70;1.00;;;;;;;16.54;64.99;98725.00;5014379;28;20222;-72
2022/09/27 11:27:09;;;;;;;2.20;0.80;;;;;;;16.43;65.01;98731.47;5020644;28;20240;-72
2022/09/27 11:29:49;;;;;;;1.30;0.70;;;;;;;16.16;65.40;98729.53;4993876;28;20219;-73
2022/09/27 11:32:37;;;;;;;1.70;0.77;;;;;;;15.88;60.52;98728.56;4993713;28;20203;-74
2022/09/27 11:35:33;;;;;;;1.70;1.00;;;;;;;15.51;61.39;98724.69;4993402;28;20245;-72
2022/09/27 11:38:14;;;;;;;1.30;0.80;;;;;;;15.43;65.36;98728.09;4993388;28;20257;-73
2022/09/27 11:41:11;;;;;;;1.63;0.73;;;;;;;15.05;64.71;98717.19;4977047;28;20567;-75
2022/09/27 11:43:58;;;;;;;1.50;0.88;;;;;;;15.50;64.82;98722.97;5008658;28;20703;-73
2022/09/27 11:46:30;;;;;;;1.48;0.80;;;;;;;15.82;63.48;98719.97;5013338;28;20183;-73
2022/09/27 11:49:23;;;;;;;1.80;1.00;;;;;;;15.60;64.79;98721.13;5012713;28;20238;-73
2022/09/27 11:52:12;;;;;;;1.30;0.80;;;;;;;15.71;64.04;98719.28;5013148;28;20237;-73
2022/09/27 11:54:59;;;;;;;1.35;0.75;;;;;;;16.34;61.01;98718.75;5012941;28;20210;-73